SEKCJA WYDRUKÓW, pokaż »

METAR EPBY 230330Z 19012KT CAVOK 09/07 Q0989=

METAR EPGD 230330Z 18013KT 9999 -RA SCT004 OVC007 07/06 Q0987 =

METAR EPKK 230330Z VRB01KT 9999 BKN064 07/05 Q0997 =

METAR EPKT 230330Z 20012KT 9999 -RA FEW038 09/04 Q0996 =

METAR EPLB 230330Z 19009KT 9999 BKN044 09/05 Q0998 =

METAR EPLL 230330Z 19007KT 140V220 9999 -RA BKN032 OVC036 08/07 Q0994
=

METAR EPML 230330Z NIL=

METAR EPMO 230330Z 15008KT 9999 -RA BKN023 08/05 Q0994 =

METAR EPPO 230330Z 19010KT 9999 BKN048 10/07 Q0990 =

METAR EPRA 230330Z 18008KT 9999 -RA OVC042 08/05 Q0996=

METAR EPRZ 230330Z 20013KT 9999 -SHRA FEW034CB 09/04 Q0999 =

METAR EPSC 230330Z 21011G23KT 190V250 9999 SCT020 BKN024 11/08 Q0986
=

METAR EPSY 230330Z 16009KT 130V190 9999 SCT028 OVC034 07/04 Q0993=

METAR EPWA 230330Z 16010KT 9999 -RA BKN032 08/05 Q0995 NOSIG=

METAR EPWR 230330Z 16004KT 130V200 9999 -RA NSC 10/07 Q0993 =

METAR EPZG 230330Z NIL=
 METAR EPPO
Lokalizacja:EPPO Poznań Ławica
Czas:03:30 UTC
Średni kierunek wiatru:190 °
Średnia prędkość wiatru:10 węzłów
Widzialność:10 km i więcej
Pierwsza warstwa chmur:5/8 do 7/8, wysokość podstawy 4800 FT
Temperatura powietrza:10 °C
Temperatura punktu rosy:7 °C
Ciśnienie QNH:990 hPa